This is the latest recevied weather packets stored in our database for station/object Winterlng. If no packets are shown the sender has not sent any weather packets the latest 10 day(s).
| Time | Temp. | Humidity | Pressure | Rain* | Wind** | Luminosity | Snow |
|---|---|---|---|---|---|---|---|
| 1777651330 | 18.89° C | 30% | 0 hPa | 0 mm | - | - | - |
| 1777649530 | 18.89° C | 30% | 0 hPa | 0 mm | - | - | - |
| 1777647730 | 19.44° C | 28% | 0 hPa | 0 mm | - | - | - |
| 1777645930 | 18.89° C | 28% | 0 hPa | 0 mm | - | - | - |
| 1777644130 | 18.89° C | 28% | 0 hPa | 0 mm | - | - | - |
| 1777642330 | 18.89° C | 27% | 0 hPa | 0 mm | - | - | - |
| 1777640531 | 18.33° C | 28% | 0 hPa | 0 mm | - | - | - |
| 1777638736 | 18.33° C | 28% | 0 hPa | 0 mm | - | - | - |
| 1777636931 | 17.78° C | 28% | 0 hPa | 0 mm | - | - | - |
| 1777635130 | 16.67° C | 30% | 0 hPa | 0 mm | - | - | - |
| 1777633331 | 16.11° C | 31% | 0 hPa | 0 mm | - | - | - |
| 1777631531 | 15.56° C | 34% | 0 hPa | 0 mm | - | - | - |
| 1777629731 | 15° C | 34% | 0 hPa | 0 mm | - | - | - |
| 1777627931 | 13.89° C | 35% | 0 hPa | 0 mm | - | - | - |
| 1777626132 | 13.33° C | 36% | 0 hPa | 0 mm | - | - | - |
| 1777624331 | 13.33° C | 34% | 0 hPa | 0 mm | - | - | - |
| 1777622532 | 12.22° C | 33% | 0 hPa | 0 mm | - | - | - |
| 1777620733 | 11.11° C | 36% | 0 hPa | 0 mm | - | - | - |
| 1777618930 | 9.44° C | 39% | 0 hPa | 0 mm | - | - | - |
| 1777617131 | 8.89° C | 41% | 0 hPa | 0 mm | - | - | - |
| 1777615333 | 7.22° C | 45% | 0 hPa | 0 mm | - | - | - |
| 1777613531 | 7.22° C | 44% | 0 hPa | 0 mm | - | - | - |
| 1777611731 | 7.78° C | 41% | 0 hPa | 0 mm | - | - | - |
| 1777609931 | 5° C | 46% | 0 hPa | 0 mm | - | - | - |
| 1777608131 | 4.44° C | 47% | 0 hPa | 0 mm | - | - | - |
* Rain since midnight (hover to see other rain measurements)
** Current wind speed in m/s (hover to see current wind gust speed)